createdAt,value
2023-02-24T00:02:55.941Z,47.68
2023-02-24T00:06:00.128Z,47.59
2023-02-24T00:09:06.847Z,47.63
2023-02-24T00:12:14.123Z,47.71
2023-02-24T00:15:17.790Z,47.50
2023-02-24T00:18:22.603Z,47.74
2023-02-24T00:21:25.843Z,47.70
2023-02-24T00:24:29.406Z,47.75
2023-02-24T00:27:33.354Z,47.67
2023-02-24T00:30:36.617Z,47.65
2023-02-24T00:33:41.894Z,47.70
2023-02-24T00:36:44.918Z,47.64
2023-02-24T00:39:48.195Z,47.74
2023-02-24T00:42:54.014Z,47.63
2023-02-24T00:45:57.432Z,47.64
2023-02-24T00:49:05.502Z,47.68
2023-02-24T00:52:09.556Z,47.68
2023-02-24T00:55:15.148Z,47.76
2023-02-24T00:58:19.526Z,47.72
2023-02-24T01:01:24.677Z,47.68
2023-02-24T01:04:29.451Z,47.64
2023-02-24T01:07:33.079Z,47.65
2023-02-24T01:10:36.302Z,47.73
2023-02-24T01:13:38.450Z,47.69
2023-02-24T01:16:44.693Z,47.64
2023-02-24T01:19:50.312Z,47.63
2023-02-24T01:22:54.606Z,47.66
2023-02-24T01:26:00.030Z,47.64
2023-02-24T01:29:05.195Z,47.58
2023-02-24T01:32:12.934Z,47.60
2023-02-24T01:35:19.127Z,47.50
2023-02-24T01:38:23.360Z,47.55
2023-02-24T01:41:28.145Z,47.54
2023-02-24T01:45:12.682Z,47.42
2023-02-24T01:48:17.682Z,47.49
2023-02-24T01:51:23.039Z,47.30
2023-02-24T01:54:29.358Z,47.47
2023-02-24T01:57:38.644Z,47.50
2023-02-24T02:00:47.696Z,47.53
2023-02-24T02:03:52.324Z,47.53
2023-02-24T02:06:57.473Z,47.51
2023-02-24T02:10:04.157Z,47.44
2023-02-24T02:13:07.767Z,47.48
2023-02-24T02:16:37.867Z,47.35
2023-02-24T02:20:07.103Z,47.44
2023-02-24T02:23:37.389Z,47.42
2023-02-24T02:27:20.938Z,47.45
2023-02-24T02:30:55.404Z,47.46
2023-02-24T02:34:14.566Z,47.38
2023-02-24T02:37:27.725Z,47.34
2023-02-24T02:40:38.325Z,47.41
2023-02-24T02:43:50.109Z,47.43
2023-02-24T02:47:00.677Z,47.34
2023-02-24T02:50:18.459Z,47.27
2023-02-24T02:53:27.751Z,47.33
2023-02-24T02:56:34.779Z,47.31
2023-02-24T02:59:49.380Z,47.28
2023-02-24T03:02:56.032Z,47.38
2023-02-24T03:06:05.141Z,47.36
2023-02-24T03:09:16.081Z,47.28
2023-02-24T03:12:23.188Z,47.34
2023-02-24T03:15:30.293Z,47.27
2023-02-24T03:18:37.316Z,47.42
2023-02-24T03:21:45.378Z,47.31
2023-02-24T03:24:49.822Z,47.22
2023-02-24T03:28:05.750Z,47.20
2023-02-24T03:31:11.952Z,47.15
2023-02-24T03:34:20.841Z,47.22
2023-02-24T03:37:28.318Z,47.21
2023-02-24T03:40:35.866Z,47.11
2023-02-24T03:43:44.934Z,47.07
2023-02-24T03:46:48.078Z,46.99
2023-02-24T03:49:51.233Z,47.02
2023-02-24T03:53:03.852Z,46.98
2023-02-24T03:56:18.482Z,46.92
2023-02-24T03:59:30.941Z,46.95
2023-02-24T04:02:35.001Z,47.03
2023-02-24T04:05:48.339Z,46.99
2023-02-24T04:09:01.273Z,46.98
2023-02-24T04:12:13.888Z,46.97
2023-02-24T04:15:24.725Z,47.03
2023-02-24T04:18:32.028Z,47.07
2023-02-24T04:21:37.233Z,47.08
2023-02-24T04:24:45.586Z,47.12
2023-02-24T04:27:49.462Z,47.17
2023-02-24T04:30:57.246Z,47.12
2023-02-24T04:34:00.473Z,47.31
2023-02-24T04:37:11.191Z,47.30
2023-02-24T04:40:18.388Z,47.34
2023-02-24T04:43:21.424Z,47.30
2023-02-24T04:46:24.413Z,47.31
2023-02-24T04:49:28.255Z,47.38
2023-02-24T04:52:31.202Z,47.27
2023-02-24T04:55:40.143Z,47.20
2023-02-24T04:58:45.994Z,47.22
2023-02-24T05:01:51.689Z,47.11
2023-02-24T05:04:55.171Z,47.25
2023-02-24T05:08:02.961Z,47.20
2023-02-24T05:11:08.461Z,47.14
2023-02-24T05:14:14.582Z,47.19
2023-02-24T05:17:18.810Z,47.23
2023-02-24T05:20:39.599Z,47.36
2023-02-24T05:23:45.130Z,47.27
2023-02-24T05:26:49.515Z,47.25
2023-02-24T05:29:54.687Z,47.22
2023-02-24T05:32:58.702Z,47.26
2023-02-24T05:36:05.771Z,47.10
2023-02-24T05:39:12.373Z,47.20
2023-02-24T05:42:17.217Z,47.11
2023-02-24T05:45:20.186Z,47.13
2023-02-24T05:48:24.896Z,47.08
2023-02-24T05:51:35.043Z,47.04
2023-02-24T05:54:40.601Z,47.06
2023-02-24T05:57:44.981Z,47.17
2023-02-24T06:00:47.951Z,47.17
2023-02-24T06:03:54.392Z,47.10
2023-02-24T06:06:58.131Z,47.15
2023-02-24T06:10:05.084Z,47.13
2023-02-24T06:13:10.386Z,47.13
2023-02-24T06:16:15.148Z,47.02
2023-02-24T06:19:18.331Z,47.10
2023-02-24T06:22:24.058Z,47.10
2023-02-24T06:25:29.878Z,47.18
2023-02-24T06:28:34.587Z,47.14
2023-02-24T06:31:37.779Z,47.05
2023-02-24T06:34:41.362Z,47.00
2023-02-24T06:37:44.733Z,47.25
2023-02-24T06:40:52.348Z,47.18
2023-02-24T06:43:56.803Z,47.29
2023-02-24T06:47:00.137Z,47.14
2023-02-24T06:50:03.065Z,47.18
2023-02-24T06:53:10.110Z,47.11
2023-02-24T06:56:15.895Z,47.22
2023-02-24T06:59:22.637Z,47.31
2023-02-24T07:02:33.307Z,47.48
2023-02-24T07:05:36.408Z,47.56
2023-02-24T07:08:39.556Z,47.60
2023-02-24T07:11:46.863Z,47.49
2023-02-24T07:14:51.412Z,47.63
2023-02-24T07:17:54.836Z,47.57
2023-02-24T07:21:05.230Z,47.59
2023-02-24T07:24:09.537Z,47.58
2023-02-24T07:27:22.661Z,47.64
2023-02-24T07:30:27.301Z,47.59
2023-02-24T07:33:30.373Z,47.63
2023-02-24T07:36:38.989Z,47.61
2023-02-24T07:39:43.061Z,47.72
2023-02-24T07:42:47.745Z,47.73
2023-02-24T07:45:53.865Z,47.64
2023-02-24T07:48:59.226Z,47.64
2023-02-24T07:52:02.328Z,47.66
2023-02-24T07:55:06.017Z,47.68
2023-02-24T07:58:10.638Z,47.54
2023-02-24T08:01:22.896Z,47.66
2023-02-24T08:04:27.883Z,47.58
2023-02-24T08:07:30.857Z,47.59
2023-02-24T08:10:37.046Z,47.48
2023-02-24T08:13:40.039Z,47.61
2023-02-24T08:16:45.634Z,47.54
2023-02-24T08:19:50.492Z,47.57
2023-02-24T08:22:55.390Z,47.50
2023-02-24T08:26:00.237Z,47.56
2023-02-24T08:29:07.437Z,47.68
2023-02-24T08:32:12.194Z,47.57
2023-02-24T08:35:17.119Z,47.57
2023-02-24T08:38:25.936Z,47.67
2023-02-24T08:41:45.915Z,47.63
2023-02-24T08:44:50.504Z,47.58
2023-02-24T08:48:00.506Z,47.56
2023-02-24T08:51:06.193Z,47.52
2023-02-24T08:54:15.427Z,47.56
2023-02-24T08:57:18.631Z,47.43
2023-02-24T09:00:41.904Z,47.55
2023-02-24T09:03:47.478Z,47.50
2023-02-24T09:07:10.604Z,47.50
2023-02-24T09:10:18.623Z,44.70
2023-02-24T09:13:21.671Z,41.51
2023-02-24T09:16:26.217Z,41.33
2023-02-24T09:20:01.785Z,40.71
2023-02-24T09:23:07.399Z,40.99
2023-02-24T09:26:11.117Z,40.48
2023-02-24T09:29:28.578Z,39.21
2023-02-24T09:32:34.757Z,38.43
2023-02-24T09:35:41.949Z,38.72
2023-02-24T09:39:10.789Z,39.40
2023-02-24T09:42:33.201Z,39.71
2023-02-24T09:45:39.799Z,40.09
2023-02-24T09:48:51.460Z,37.36
2023-02-24T09:52:08.903Z,33.22
2023-02-24T09:55:26.092Z,34.19
2023-02-24T09:58:43.919Z,33.40
2023-02-24T10:01:52.823Z,32.87
2023-02-24T10:05:07.400Z,32.87
2023-02-24T10:08:25.358Z,33.46
2023-02-24T10:11:36.683Z,33.96
2023-02-24T10:14:51.214Z,34.63
2023-02-24T10:17:57.356Z,34.95
2023-02-24T10:21:30.537Z,35.18
2023-02-24T10:24:41.297Z,35.45
2023-02-24T10:27:57.977Z,35.65
2023-02-24T10:31:11.236Z,35.82
2023-02-24T10:34:20.859Z,36.06
2023-02-24T10:37:29.562Z,36.32
2023-02-24T10:40:46.726Z,36.45
2023-02-24T10:43:57.661Z,36.60
2023-02-24T10:47:11.438Z,36.68
2023-02-24T10:50:23.946Z,36.90
2023-02-24T10:53:34.790Z,36.89
2023-02-24T10:56:44.851Z,37.19
2023-02-24T11:00:19.686Z,37.41
2023-02-24T11:03:36.034Z,37.68
2023-02-24T11:06:55.563Z,37.84
2023-02-24T11:10:12.257Z,37.97
2023-02-24T11:13:35.829Z,38.16
2023-02-24T11:17:01.903Z,38.34
2023-02-24T11:20:10.969Z,38.49
2023-02-24T11:23:17.504Z,38.62
2023-02-24T11:26:23.978Z,38.90
2023-02-24T11:29:48.421Z,39.16
2023-02-24T11:33:07.263Z,39.37
2023-02-24T11:36:20.564Z,39.50
2023-02-24T11:39:42.178Z,39.79
2023-02-24T11:42:51.054Z,39.90
2023-02-24T11:46:01.263Z,39.99
2023-02-24T11:49:16.656Z,40.18
2023-02-24T11:52:30.306Z,40.31
2023-02-24T11:55:38.818Z,40.43
2023-02-24T11:58:46.729Z,40.49
2023-02-24T12:01:56.695Z,40.50
2023-02-24T12:05:06.596Z,40.68
2023-02-24T12:08:19.962Z,40.87
2023-02-24T12:11:34.509Z,41.09
2023-02-24T12:14:41.400Z,41.32
2023-02-24T12:17:58.099Z,41.42
2023-02-24T12:21:06.806Z,41.60
2023-02-24T12:24:13.806Z,41.68
2023-02-24T12:27:28.702Z,41.80
2023-02-24T12:31:03.268Z,41.94
2023-02-24T12:34:14.519Z,42.04
2023-02-24T12:37:29.248Z,42.13
2023-02-24T12:40:45.867Z,42.30
2023-02-24T12:43:56.566Z,42.41
2023-02-24T12:47:07.618Z,42.35
2023-02-24T12:50:31.278Z,42.61
2023-02-24T12:53:41.525Z,42.69
2023-02-24T12:56:53.418Z,42.90
2023-02-24T12:59:58.240Z,42.81
2023-02-24T13:03:11.767Z,42.98
2023-02-24T13:06:26.572Z,43.06
2023-02-24T13:09:38.003Z,43.08
2023-02-24T13:12:48.498Z,43.09
2023-02-24T13:15:54.125Z,43.23
2023-02-24T13:19:06.868Z,43.15
2023-02-24T13:22:25.800Z,43.08
2023-02-24T13:25:33.844Z,42.99
2023-02-24T13:28:38.578Z,43.14
2023-02-24T13:31:48.037Z,43.19
2023-02-24T13:34:51.731Z,43.09
2023-02-24T13:37:56.115Z,43.27
2023-02-24T13:41:09.300Z,43.17
2023-02-24T13:44:25.037Z,43.33
2023-02-24T13:48:10.975Z,43.29
2023-02-24T13:51:41.373Z,43.36
2023-02-24T13:55:19.728Z,43.33
2023-02-24T13:58:45.995Z,43.31
2023-02-24T14:01:52.566Z,43.31
2023-02-24T14:04:58.895Z,43.35
2023-02-24T14:08:03.511Z,43.23
2023-02-24T14:11:10.935Z,43.12
2023-02-24T14:14:18.074Z,43.18
2023-02-24T14:17:28.577Z,43.16
2023-02-24T14:20:33.527Z,43.16
2023-02-24T14:23:37.701Z,43.30
2023-02-24T14:26:47.235Z,43.46
2023-02-24T14:29:52.871Z,43.46
2023-02-24T14:32:56.533Z,43.40
2023-02-24T14:36:01.131Z,43.42
2023-02-24T14:39:11.056Z,43.50
2023-02-24T14:42:16.145Z,43.41
2023-02-24T14:45:21.913Z,43.32
2023-02-24T14:48:27.541Z,43.33
2023-02-24T14:51:35.695Z,43.56
2023-02-24T14:54:45.011Z,43.61
2023-02-24T14:57:57.237Z,43.70
2023-02-24T15:01:05.052Z,43.80
2023-02-24T15:04:15.528Z,43.79
2023-02-24T15:07:22.393Z,43.82
2023-02-24T15:10:28.726Z,43.93
2023-02-24T15:13:39.206Z,43.88
2023-02-24T15:16:45.492Z,43.96
2023-02-24T15:19:54.327Z,44.02
2023-02-24T15:22:57.847Z,44.17
2023-02-24T15:26:01.604Z,44.22
2023-02-24T15:29:15.552Z,44.25
2023-02-24T15:32:20.603Z,44.36
2023-02-24T15:35:24.862Z,44.36
2023-02-24T15:38:33.227Z,44.40
2023-02-24T15:41:41.329Z,44.40
2023-02-24T15:44:54.592Z,44.56
2023-02-24T15:47:59.999Z,44.48
2023-02-24T15:51:06.685Z,44.51
2023-02-24T15:54:13.664Z,44.56
2023-02-24T15:57:18.429Z,44.60
2023-02-24T16:00:24.124Z,44.53
2023-02-24T16:03:27.059Z,44.60
2023-02-24T16:06:30.288Z,44.82
2023-02-24T16:09:36.408Z,45.69
2023-02-24T16:12:47.496Z,45.73
2023-02-24T16:15:52.490Z,45.42
2023-02-24T16:18:56.753Z,45.63
2023-02-24T16:22:00.226Z,46.29
2023-02-24T16:25:03.280Z,46.10
2023-02-24T16:28:06.508Z,46.15
2023-02-24T16:31:11.063Z,46.04
2023-02-24T16:34:16.346Z,46.08
2023-02-24T16:37:22.066Z,45.98
2023-02-24T16:40:27.964Z,46.05
2023-02-24T16:43:31.012Z,45.92
2023-02-24T16:46:41.120Z,45.66
2023-02-24T16:49:44.650Z,45.70
2023-02-24T16:52:47.702Z,45.69
2023-02-24T16:55:51.608Z,45.69
2023-02-24T16:58:54.634Z,45.51
2023-02-24T17:02:02.166Z,45.64
2023-02-24T17:05:05.658Z,45.57
2023-02-24T17:08:08.674Z,45.51
2023-02-24T17:11:13.454Z,45.59
2023-02-24T17:14:19.292Z,45.72
2023-02-24T17:17:23.618Z,45.72
2023-02-24T17:20:26.649Z,45.75
2023-02-24T17:23:29.789Z,45.77
2023-02-24T17:26:33.298Z,45.62
2023-02-24T17:29:36.395Z,45.64
2023-02-24T17:32:40.952Z,45.52
2023-02-24T17:35:44.648Z,45.77
2023-02-24T17:38:47.636Z,45.54
2023-02-24T17:41:50.725Z,45.54
2023-02-24T17:44:53.801Z,45.62
2023-02-24T17:47:58.243Z,45.61
2023-02-24T17:51:01.297Z,45.55
2023-02-24T17:54:04.950Z,45.54
2023-02-24T17:57:09.047Z,45.62
2023-02-24T18:00:13.058Z,45.56
2023-02-24T18:03:17.834Z,45.59
2023-02-24T18:06:21.311Z,45.57
2023-02-24T18:09:24.681Z,45.56
2023-02-24T18:12:27.988Z,45.45
2023-02-24T18:15:31.044Z,45.62
2023-02-24T18:18:35.572Z,45.53
2023-02-24T18:21:39.104Z,45.63
2023-02-24T18:24:42.113Z,45.61
2023-02-24T18:27:45.182Z,45.62
2023-02-24T18:30:48.458Z,45.74
2023-02-24T18:33:53.258Z,45.70
2023-02-24T18:36:56.418Z,45.63
2023-02-24T18:39:59.482Z,45.71
2023-02-24T18:43:03.018Z,45.67
2023-02-24T18:46:08.322Z,45.64
2023-02-24T18:49:13.220Z,45.68
2023-02-24T18:52:16.245Z,45.65
2023-02-24T18:55:19.772Z,45.66
2023-02-24T18:58:22.880Z,45.65
2023-02-24T19:01:27.844Z,45.62
2023-02-24T19:04:32.365Z,45.60
2023-02-24T19:07:35.363Z,45.56
2023-02-24T19:10:40.217Z,45.35
2023-02-24T19:13:43.691Z,45.46
2023-02-24T19:16:47.241Z,45.34
2023-02-24T19:19:52.092Z,45.48
2023-02-24T19:22:55.509Z,45.37
2023-02-24T19:25:59.026Z,45.39
2023-02-24T19:29:02.393Z,45.44
2023-02-24T19:32:05.682Z,45.40
2023-02-24T19:35:10.366Z,45.42
2023-02-24T19:38:15.856Z,45.52
2023-02-24T19:41:19.430Z,45.46
2023-02-24T19:44:22.610Z,45.43
2023-02-24T19:47:25.615Z,45.52
2023-02-24T19:50:30.021Z,45.47
2023-02-24T19:53:33.081Z,45.47
2023-02-24T19:56:37.710Z,45.56
2023-02-24T19:59:40.656Z,45.46
2023-02-24T20:02:43.760Z,45.56
2023-02-24T20:05:48.561Z,45.62
2023-02-24T20:08:51.761Z,45.67
2023-02-24T20:11:57.272Z,45.63
2023-02-24T20:15:00.420Z,45.65
2023-02-24T20:18:07.651Z,45.71
2023-02-24T20:21:13.474Z,45.61
2023-02-24T20:24:19.000Z,45.69
2023-02-24T20:27:22.446Z,45.68
2023-02-24T20:30:25.501Z,45.64
2023-02-24T20:33:28.485Z,45.67
2023-02-24T20:36:33.419Z,45.66
2023-02-24T20:39:36.505Z,45.70
2023-02-24T20:42:39.596Z,45.70
2023-02-24T20:45:43.079Z,45.70
2023-02-24T20:48:46.477Z,45.78
2023-02-24T20:51:51.024Z,45.83
2023-02-24T20:54:54.060Z,45.79
2023-02-24T20:57:57.075Z,45.78
2023-02-24T21:01:00.125Z,45.81
2023-02-24T21:04:04.064Z,45.82
2023-02-24T21:07:08.578Z,45.87
2023-02-24T21:10:13.664Z,45.81
2023-02-24T21:13:18.208Z,45.81
2023-02-24T21:16:22.806Z,45.77
2023-02-24T21:19:26.155Z,45.80
2023-02-24T21:22:31.250Z,45.85
2023-02-24T21:25:34.390Z,45.79
2023-02-24T21:28:37.584Z,45.95
2023-02-24T21:31:40.862Z,45.99
2023-02-24T21:34:44.027Z,45.99
2023-02-24T21:37:48.853Z,45.89
2023-02-24T21:40:51.887Z,45.97
2023-02-24T21:43:55.895Z,46.05
2023-02-24T21:46:59.100Z,45.87
2023-02-24T21:50:02.043Z,45.98
2023-02-24T21:53:07.140Z,45.93
2023-02-24T21:56:16.474Z,45.89
2023-02-24T21:59:19.867Z,45.94
2023-02-24T22:02:22.898Z,45.88
2023-02-24T22:05:27.345Z,45.92
2023-02-24T22:08:31.837Z,45.95
2023-02-24T22:11:37.227Z,46.04
2023-02-24T22:14:40.389Z,45.98
2023-02-24T22:17:44.216Z,46.05
2023-02-24T22:20:47.180Z,46.02
2023-02-24T22:23:53.233Z,45.99
2023-02-24T22:26:56.437Z,46.00
2023-02-24T22:29:59.678Z,46.07
2023-02-24T22:33:02.668Z,46.04
2023-02-24T22:36:07.716Z,45.99
2023-02-24T22:39:16.625Z,46.09
2023-02-24T22:42:19.682Z,46.11
2023-02-24T22:45:22.716Z,45.96
2023-02-24T22:48:26.751Z,46.06
2023-02-24T22:51:30.138Z,46.13
2023-02-24T22:54:34.506Z,46.04
2023-02-24T22:57:37.560Z,46.08
2023-02-24T23:00:41.853Z,46.02
2023-02-24T23:03:46.195Z,46.11
2023-02-24T23:06:49.333Z,46.08
2023-02-24T23:09:54.378Z,46.17
2023-02-24T23:12:57.402Z,46.15
2023-02-24T23:16:03.511Z,46.17
2023-02-24T23:19:12.861Z,46.24
2023-02-24T23:22:16.315Z,45.81
2023-02-24T23:25:22.560Z,43.43
2023-02-24T23:28:26.925Z,41.68
2023-02-24T23:31:30.319Z,42.41
2023-02-24T23:34:33.310Z,42.06
2023-02-24T23:37:36.358Z,41.94
2023-02-24T23:40:51.130Z,41.98
2023-02-24T23:43:54.392Z,42.15
2023-02-24T23:46:58.615Z,42.15
2023-02-24T23:50:01.767Z,42.36
2023-02-24T23:53:05.407Z,42.50
2023-02-24T23:56:12.749Z,42.54
2023-02-24T23:59:15.951Z,42.69
